createdAt,value
2018-07-12T03:01:28.571Z,0.00
2018-07-12T03:02:28.617Z,0.00
2018-07-12T03:03:33.185Z,0.00
2018-07-12T03:04:27.606Z,0.00
2018-07-12T03:38:35.416Z,5.63
2018-07-12T03:43:20.999Z,5.63
2018-07-12T03:44:12.428Z,5.63
2018-07-12T03:45:07.365Z,5.63
2018-07-12T03:46:09.521Z,5.63
2018-07-12T03:52:11.052Z,16.88
2018-07-12T03:53:10.458Z,22.50
2018-07-12T03:54:10.352Z,22.50
2018-07-12T03:55:10.146Z,28.13
2018-07-12T03:56:11.708Z,28.13
2018-07-12T03:57:10.648Z,33.75
2018-07-12T03:58:11.241Z,33.75
2018-07-12T03:59:11.068Z,33.75
2018-07-12T04:00:08.805Z,33.75
2018-07-12T04:01:09.830Z,33.75
2018-07-12T04:02:09.010Z,33.75
2018-07-12T04:03:09.267Z,39.38
2018-07-12T04:04:09.518Z,39.38
2018-07-12T04:06:58.132Z,56.25
2018-07-12T04:07:59.023Z,61.88
2018-07-12T04:08:58.802Z,61.88
2018-07-12T04:09:59.670Z,67.50
2018-07-12T04:10:59.161Z,67.50
2018-07-12T04:11:58.933Z,73.13
2018-07-12T04:12:57.322Z,73.13
2018-07-12T04:13:57.352Z,78.75
2018-07-12T04:14:57.479Z,78.75
2018-07-12T04:15:57.583Z,78.75
2018-07-12T04:16:57.833Z,84.38
2018-07-12T04:17:58.119Z,84.38
2018-07-12T04:19:00.351Z,90.00
2018-07-12T04:19:59.231Z,90.00
2018-07-12T04:21:23.703Z,95.63
2018-07-12T04:22:54.574Z,95.63
2018-07-12T04:23:01.297Z,95.63
2018-07-12T04:24:02.229Z,95.63
2018-07-12T04:25:02.978Z,95.63
2018-07-12T04:26:02.532Z,95.63
2018-07-12T04:27:02.204Z,95.63
2018-07-12T04:49:53.659Z,95.63
2018-07-12T04:52:20.205Z,135.00
2018-07-12T04:55:01.334Z,140.63
2018-07-12T04:56:02.152Z,146.25
2018-07-12T04:57:04.422Z,151.88
2018-07-12T04:58:03.013Z,157.50
2018-07-12T04:59:06.231Z,157.50
2018-07-12T05:36:23.649Z,247.50
2018-07-12T05:37:24.189Z,275.63
2018-07-12T05:38:23.661Z,298.13
2018-07-12T05:39:24.281Z,292.50
2018-07-12T05:53:53.235Z,326.25
2018-07-12T05:54:58.196Z,331.88
2018-07-12T05:55:56.075Z,320.63
2018-07-12T05:56:56.160Z,315.00
2018-07-12T05:57:57.312Z,309.38
2018-07-12T06:28:21.351Z,343.13
2018-07-12T06:29:09.850Z,331.88
2018-07-12T06:30:19.419Z,354.38
2018-07-12T06:31:10.101Z,371.25
2018-07-12T06:32:12.106Z,371.25
2018-07-12T06:35:24.727Z,483.75
2018-07-12T06:36:25.580Z,511.88
2018-07-12T06:37:35.348Z,551.25
2018-07-12T06:54:58.181Z,545.63
2018-07-12T06:59:13.550Z,556.88
2018-07-12T07:05:48.319Z,573.75
2018-07-12T07:09:05.843Z,618.75
2018-07-12T07:10:08.488Z,635.63
2018-07-12T07:11:43.824Z,714.38
2018-07-12T07:26:35.925Z,556.88
2018-07-12T07:27:37.878Z,545.63
2018-07-12T07:28:42.618Z,500.63
2018-07-12T07:33:12.254Z,556.88
2018-07-12T07:35:08.007Z,534.38
2018-07-12T07:36:11.094Z,528.75
2018-07-12T07:38:36.261Z,573.75
2018-07-12T07:43:24.498Z,613.13
2018-07-12T07:52:13.193Z,405.00
2018-07-12T07:53:58.559Z,348.75
2018-07-12T07:58:05.961Z,562.50
2018-07-12T08:12:07.566Z,585.00
2018-07-12T08:35:07.179Z,630.00
2018-07-12T08:37:07.127Z,624.38
2018-07-12T08:38:24.633Z,641.25
2018-07-12T08:41:06.770Z,736.88
2018-07-12T08:43:13.822Z,765.00
2018-07-12T08:44:10.884Z,770.63
2018-07-12T08:45:09.796Z,753.75
2018-07-12T08:46:07.595Z,731.25
2018-07-12T08:47:09.783Z,753.75
2018-07-12T08:59:21.118Z,911.25
2018-07-12T09:00:22.144Z,950.63
2018-07-12T09:01:20.611Z,1063.13
2018-07-12T09:02:20.705Z,1057.50
2018-07-12T09:03:22.968Z,922.50
2018-07-12T09:04:20.835Z,843.75
2018-07-12T09:06:18.339Z,883.13
2018-07-12T09:07:17.683Z,956.25
2018-07-12T09:08:17.776Z,894.38
2018-07-12T09:09:18.070Z,826.88
2018-07-12T09:10:18.128Z,736.88
2018-07-12T09:11:18.194Z,675.00
2018-07-12T09:12:18.439Z,641.25
2018-07-12T09:13:18.468Z,686.25
2018-07-12T09:14:18.831Z,950.63
2018-07-12T09:15:19.005Z,1012.50
2018-07-12T09:16:19.440Z,1057.50
2018-07-12T09:17:19.448Z,1108.13
2018-07-12T09:18:20.479Z,1153.13
2018-07-12T09:19:19.798Z,1113.75
2018-07-12T09:20:20.114Z,1136.25
2018-07-12T09:21:20.211Z,1080.00
2018-07-12T09:22:20.304Z,1164.38
2018-07-12T09:23:20.446Z,1051.88
2018-07-12T09:24:20.612Z,1051.88
2018-07-12T09:25:21.239Z,956.25
2018-07-12T09:26:21.817Z,922.50
2018-07-12T09:27:21.211Z,995.63
2018-07-12T09:28:21.315Z,1186.88
2018-07-12T09:29:21.788Z,1096.88
2018-07-12T09:30:22.033Z,1175.63
2018-07-12T09:31:21.933Z,1130.63
2018-07-12T09:32:22.546Z,1006.88
2018-07-12T09:33:22.547Z,922.50
2018-07-12T09:34:22.456Z,883.13
2018-07-12T09:35:22.554Z,860.63
2018-07-12T09:36:23.594Z,815.63
2018-07-12T09:37:23.076Z,776.25
2018-07-12T09:38:23.365Z,765.00
2018-07-12T09:42:06.335Z,933.75
2018-07-12T09:42:51.932Z,1091.25
2018-07-12T09:43:57.732Z,1260.00
2018-07-12T09:44:55.608Z,1113.75
2018-07-12T09:47:01.620Z,1119.38
2018-07-12T09:48:02.595Z,900.00
2018-07-12T09:49:01.468Z,821.25
2018-07-12T09:50:00.590Z,753.75
2018-07-12T09:51:00.557Z,703.13
2018-07-12T09:52:00.534Z,658.13
2018-07-12T09:52:59.760Z,680.63
2018-07-12T09:53:58.764Z,720.00
2018-07-12T09:54:58.692Z,776.25
2018-07-12T09:55:59.041Z,849.38
2018-07-12T09:56:59.292Z,843.75
2018-07-12T09:57:59.400Z,759.38
2018-07-12T09:59:00.321Z,736.88
2018-07-12T09:59:59.901Z,742.50
2018-07-12T10:00:59.872Z,781.88
2018-07-12T10:02:00.360Z,804.38
2018-07-12T10:03:00.549Z,871.88
2018-07-12T10:04:00.652Z,973.13
2018-07-12T10:05:00.772Z,900.00
2018-07-12T10:06:01.452Z,832.50
2018-07-12T10:07:01.503Z,843.75
2018-07-12T10:08:01.369Z,877.50
2018-07-12T10:09:01.532Z,905.63
2018-07-12T10:10:01.751Z,1001.25
2018-07-12T10:11:01.828Z,916.88
2018-07-12T10:12:02.662Z,900.00
2018-07-12T10:13:02.561Z,1074.38
2018-07-12T10:14:02.633Z,1068.75
2018-07-12T10:15:04.119Z,956.25
2018-07-12T10:16:02.869Z,826.88
2018-07-12T10:17:03.499Z,714.38
2018-07-12T10:18:03.416Z,663.75
2018-07-12T10:19:03.306Z,770.63
2018-07-12T10:21:05.707Z,2261.25
2018-07-12T10:22:04.080Z,1282.50
2018-07-12T10:38:28.196Z,759.38
2018-07-12T11:52:12.760Z,3543.75
2018-07-12T12:07:06.452Z,787.50
2018-07-12T12:08:17.017Z,1220.63
2018-07-12T12:11:40.983Z,652.50
2018-07-12T12:14:44.107Z,579.38
2018-07-12T12:15:36.435Z,635.63
2018-07-12T12:16:49.105Z,1563.75
2018-07-12T12:17:48.818Z,2683.13
2018-07-12T12:18:36.184Z,3746.25
2018-07-12T12:20:38.937Z,3999.38
2018-07-12T12:21:38.452Z,3875.63
2018-07-12T12:22:41.456Z,1957.50
2018-07-12T12:23:34.883Z,3330.00
2018-07-12T12:24:34.938Z,2030.63
2018-07-12T12:25:35.828Z,2103.75
2018-07-12T12:26:34.880Z,1338.75
2018-07-12T12:27:35.475Z,1265.63
2018-07-12T12:28:35.362Z,1338.75
2018-07-12T12:29:35.680Z,1456.88
2018-07-12T12:30:35.700Z,1507.50
2018-07-12T12:31:36.250Z,2761.88
2018-07-12T12:32:36.364Z,4196.25
2018-07-12T12:33:36.345Z,4252.50
2018-07-12T12:34:36.446Z,4207.50
2018-07-12T12:35:36.721Z,4297.50
2018-07-12T12:36:37.617Z,4263.75
2018-07-12T12:37:37.024Z,1996.88
2018-07-12T12:38:37.273Z,1710.00
2018-07-12T12:39:37.574Z,4196.25
2018-07-12T12:40:37.439Z,1996.88
2018-07-12T12:41:37.791Z,4500.00
2018-07-12T12:42:39.647Z,3813.75
2018-07-12T12:43:38.606Z,3082.50
2018-07-12T12:44:39.222Z,4466.25
2018-07-12T12:45:39.523Z,2491.88
2018-07-12T12:46:42.268Z,3127.50
2018-07-12T12:47:39.530Z,4505.63
2018-07-12T12:48:39.009Z,4460.63
2018-07-12T12:49:40.065Z,1743.75
2018-07-12T12:50:40.432Z,2491.88
2018-07-12T12:51:39.795Z,1215.00
2018-07-12T12:52:39.825Z,4196.25
2018-07-12T12:53:42.494Z,4241.25
2018-07-12T12:54:40.278Z,4050.00
2018-07-12T12:55:40.690Z,4016.25
2018-07-12T12:56:40.878Z,4005.00
2018-07-12T12:57:40.926Z,3920.63
2018-07-12T12:58:41.676Z,3948.75
2018-07-12T12:59:59.888Z,4072.50
2018-07-12T13:01:44.354Z,4185.00
2018-07-12T13:03:39.584Z,2565.00
2018-07-12T13:03:46.744Z,1800.00
2018-07-12T13:04:47.790Z,1434.38
2018-07-12T13:06:46.990Z,1231.88
2018-07-12T13:07:45.916Z,1085.63
2018-07-12T13:08:49.944Z,1012.50
2018-07-12T13:10:26.346Z,1096.88
2018-07-12T13:12:06.193Z,3082.50
2018-07-12T13:14:22.563Z,4432.50
2018-07-12T13:16:49.213Z,4286.25
2018-07-12T13:17:48.662Z,4263.75
2018-07-12T13:18:46.811Z,4190.63
2018-07-12T13:19:44.844Z,4106.25
2018-07-12T13:20:45.182Z,4235.63
2018-07-12T13:21:45.203Z,4252.50
2018-07-12T13:22:45.800Z,4280.63
2018-07-12T13:23:45.757Z,1648.13
2018-07-12T13:24:45.701Z,4308.75
2018-07-12T13:25:46.112Z,4314.38
2018-07-12T13:26:46.135Z,4303.13
2018-07-12T13:27:46.492Z,3639.38
2018-07-12T13:28:46.536Z,4353.75
2018-07-12T13:29:48.416Z,4365.00
2018-07-12T13:30:46.864Z,4393.13
2018-07-12T13:32:47.157Z,1136.25
2018-07-12T13:33:47.397Z,1074.38
2018-07-12T13:34:47.511Z,3054.38
2018-07-12T13:35:47.930Z,4308.75
2018-07-12T13:36:48.017Z,4286.25
2018-07-12T13:37:48.104Z,4325.63
2018-07-12T13:38:48.257Z,4342.50
2018-07-12T13:39:48.390Z,4387.50
2018-07-12T13:40:48.697Z,4353.75
2018-07-12T13:41:48.959Z,4370.63
2018-07-12T13:42:49.214Z,4303.13
2018-07-12T13:43:49.141Z,4320.00
2018-07-12T13:44:49.506Z,3043.13
2018-07-12T13:45:49.491Z,4387.50
2018-07-12T13:46:49.788Z,4365.00
2018-07-12T13:47:49.872Z,4449.38
2018-07-12T13:48:50.216Z,4404.38
2018-07-12T13:49:50.480Z,2418.75
2018-07-12T13:50:50.406Z,4275.00
2018-07-12T13:51:50.902Z,4055.63
2018-07-12T13:52:50.867Z,1153.13
2018-07-12T13:53:51.102Z,967.50
2018-07-12T13:54:51.095Z,1119.38
2018-07-12T13:55:51.242Z,4134.38
2018-07-12T13:56:51.542Z,4083.75
2018-07-12T13:57:51.576Z,3948.75
2018-07-12T13:58:52.283Z,3892.50
2018-07-12T13:59:52.155Z,3853.13
2018-07-12T14:00:52.381Z,3853.13
2018-07-12T14:01:52.607Z,3858.75
2018-07-12T14:02:53.023Z,3892.50
2018-07-12T14:03:53.229Z,3870.00
2018-07-12T14:04:53.285Z,3915.00
2018-07-12T14:05:53.462Z,3909.38
2018-07-12T14:06:53.729Z,3892.50
2018-07-12T14:07:53.849Z,3858.75
2018-07-12T14:08:53.880Z,3853.13
2018-07-12T14:09:54.356Z,961.88
2018-07-12T14:10:54.339Z,967.50
2018-07-12T14:11:54.553Z,3875.63
2018-07-12T14:12:54.795Z,3841.88
2018-07-12T14:13:54.809Z,3886.88
2018-07-12T14:14:55.333Z,3931.88
2018-07-12T14:15:55.027Z,4016.25
2018-07-12T14:16:55.325Z,3982.50
2018-07-12T14:17:55.654Z,3898.13
2018-07-12T14:18:56.094Z,3223.13
2018-07-12T14:19:56.081Z,3566.25
2018-07-12T14:20:56.418Z,2818.13
2018-07-12T14:21:56.483Z,888.75
2018-07-12T14:22:56.895Z,793.13
2018-07-12T14:23:56.870Z,753.75
2018-07-12T14:24:57.161Z,742.50
2018-07-12T14:25:57.302Z,686.25
2018-07-12T14:26:57.750Z,641.25
2018-07-12T14:27:57.954Z,607.50
2018-07-12T14:28:58.057Z,590.63
2018-07-12T14:29:58.317Z,601.88
2018-07-12T14:30:58.568Z,630.00
2018-07-12T14:31:58.620Z,669.38
2018-07-12T14:32:58.817Z,680.63
2018-07-12T14:33:59.027Z,691.88
2018-07-12T14:34:59.105Z,714.38
2018-07-12T14:35:59.251Z,731.25
2018-07-12T14:36:59.394Z,736.88
2018-07-12T14:37:59.891Z,759.38
2018-07-12T14:39:00.051Z,776.25
2018-07-12T14:40:00.302Z,793.13
2018-07-12T14:41:00.619Z,787.50
2018-07-12T14:42:00.547Z,770.63
2018-07-12T14:43:00.820Z,742.50
2018-07-12T14:44:01.081Z,703.13
2018-07-12T14:45:01.198Z,669.38
2018-07-12T14:46:01.477Z,635.63
2018-07-12T14:47:01.687Z,596.25
2018-07-12T14:48:01.926Z,579.38
2018-07-12T14:49:01.916Z,556.88
2018-07-12T14:50:02.212Z,556.88
2018-07-12T14:51:03.011Z,556.88
2018-07-12T14:52:02.587Z,545.63
2018-07-12T14:53:02.749Z,528.75
2018-07-12T14:54:02.874Z,511.88
2018-07-12T14:55:03.243Z,495.00
2018-07-12T14:56:03.366Z,483.75
2018-07-12T14:57:03.861Z,478.13
2018-07-12T14:58:03.830Z,472.50
2018-07-12T14:59:03.947Z,461.25
2018-07-12T15:00:04.187Z,450.00
2018-07-12T15:01:04.317Z,444.38
2018-07-12T15:02:04.598Z,438.75
2018-07-12T15:03:04.583Z,438.75
2018-07-12T15:04:05.088Z,427.50
2018-07-12T15:05:05.252Z,421.88
2018-07-12T15:06:05.579Z,421.88
2018-07-12T15:07:05.198Z,427.50
2018-07-12T15:08:05.432Z,427.50
2018-07-12T15:09:05.728Z,427.50
2018-07-12T15:10:06.112Z,433.13
2018-07-12T15:11:06.423Z,444.38
2018-07-12T15:12:06.341Z,450.00
2018-07-12T15:13:06.416Z,455.63
2018-07-12T15:14:06.580Z,461.25
2018-07-12T15:15:06.635Z,483.75
2018-07-12T15:16:07.038Z,545.63
2018-07-12T15:17:07.435Z,652.50
2018-07-12T15:18:07.152Z,613.13
2018-07-12T15:19:07.861Z,596.25
2018-07-12T15:20:07.759Z,579.38
2018-07-12T15:21:07.925Z,596.25
2018-07-12T15:22:08.061Z,911.25
2018-07-12T15:23:08.195Z,2750.63
2018-07-12T15:24:08.483Z,2739.38
2018-07-12T15:25:09.122Z,2801.25
2018-07-12T15:26:08.899Z,2868.75
2018-07-12T15:27:09.042Z,2913.75
2018-07-12T15:28:09.519Z,1558.13
2018-07-12T15:29:09.131Z,618.75
2018-07-12T15:30:09.648Z,511.88
2018-07-12T21:36:41.098Z,0.00
2018-07-12T21:39:11.431Z,0.00
